createdAt,value
2022-12-14T00:01:26.400Z,7.27
2022-12-14T00:03:54.082Z,6.17
2022-12-14T00:06:29.421Z,11.50
2022-12-14T00:08:58.783Z,6.70
2022-12-14T00:11:25.888Z,9.70
2022-12-14T00:13:58.249Z,10.53
2022-12-14T00:16:27.412Z,6.10
2022-12-14T00:18:55.798Z,6.87
2022-12-14T00:21:23.092Z,7.20
2022-12-14T00:23:51.430Z,7.70
2022-12-14T00:26:23.735Z,7.87
2022-12-14T00:28:52.316Z,6.60
2022-12-14T00:31:20.191Z,8.50
2022-12-14T00:33:47.244Z,7.53
2022-12-14T00:36:14.698Z,8.57
2022-12-14T00:38:42.009Z,7.20
2022-12-14T00:41:09.924Z,6.43
2022-12-14T00:43:36.671Z,7.00
2022-12-14T00:46:03.399Z,6.27
2022-12-14T00:48:32.093Z,8.47
2022-12-14T00:50:59.165Z,7.90
2022-12-14T00:53:26.083Z,7.43
2022-12-14T00:55:52.978Z,5.20
2022-12-14T00:58:21.961Z,6.10
2022-12-14T01:01:02.321Z,9.07
2022-12-14T01:03:29.367Z,6.43
2022-12-14T01:05:56.435Z,5.17
2022-12-14T01:08:23.879Z,8.10
2022-12-14T01:10:51.017Z,7.07
2022-12-14T01:13:18.172Z,5.30
2022-12-14T01:15:44.856Z,6.83
2022-12-14T01:18:11.525Z,6.93
2022-12-14T01:20:38.047Z,4.77
2022-12-14T01:23:04.592Z,6.60
2022-12-14T01:25:31.129Z,6.27
2022-12-14T01:27:57.691Z,5.17
2022-12-14T01:30:24.287Z,3.90
2022-12-14T01:32:51.262Z,4.50
2022-12-14T01:35:17.781Z,5.33
2022-12-14T01:37:44.763Z,5.73
2022-12-14T01:40:11.705Z,6.33
2022-12-14T01:42:38.619Z,3.63
2022-12-14T01:45:06.050Z,4.43
2022-12-14T01:47:41.675Z,4.63
2022-12-14T01:50:26.536Z,3.90
2022-12-14T01:53:02.792Z,7.17
2022-12-14T01:55:36.137Z,6.37
2022-12-14T01:58:05.569Z,3.83
2022-12-14T02:00:32.780Z,4.00
2022-12-14T02:03:07.612Z,5.23
2022-12-14T02:05:37.349Z,4.77
2022-12-14T02:08:05.888Z,4.10
2022-12-14T02:10:33.471Z,4.33
2022-12-14T02:13:25.547Z,5.33
2022-12-14T02:15:52.903Z,4.20
2022-12-14T02:18:25.365Z,3.47
2022-12-14T02:21:19.961Z,4.97
2022-12-14T02:24:22.023Z,4.93
2022-12-14T02:27:16.260Z,3.93
2022-12-14T02:30:06.472Z,4.00
2022-12-14T02:33:00.279Z,5.00
2022-12-14T02:35:39.686Z,4.00
2022-12-14T02:38:28.091Z,3.67
2022-12-14T02:41:06.612Z,4.10
2022-12-14T02:43:48.473Z,3.50
2022-12-14T02:46:21.368Z,4.30
2022-12-14T02:49:11.024Z,3.53
2022-12-14T02:52:13.110Z,5.47
2022-12-14T02:54:48.931Z,5.70
2022-12-14T02:57:27.346Z,4.50
2022-12-14T02:59:57.408Z,3.73
2022-12-14T03:02:25.350Z,5.23
2022-12-14T03:04:52.084Z,3.90
2022-12-14T03:07:34.154Z,2.87
2022-12-14T03:10:06.421Z,3.50
2022-12-14T03:12:34.550Z,2.80
2022-12-14T03:15:04.610Z,4.60
2022-12-14T03:17:34.196Z,4.20
2022-12-14T03:20:18.577Z,2.93
2022-12-14T03:22:51.648Z,3.70
2022-12-14T03:25:27.721Z,3.73
2022-12-14T03:28:03.489Z,3.50
2022-12-14T03:30:58.769Z,2.93
2022-12-14T03:33:22.529Z,5.27
2022-12-14T03:36:02.203Z,4.60
2022-12-14T03:38:35.336Z,3.73
2022-12-14T03:41:21.687Z,6.00
2022-12-14T03:44:07.595Z,3.00
2022-12-14T03:46:58.868Z,2.50
2022-12-14T03:49:40.749Z,3.93
2022-12-14T03:52:19.255Z,3.43
2022-12-14T03:54:56.805Z,2.93
2022-12-14T03:57:38.483Z,2.70
2022-12-14T04:00:10.536Z,3.90
2022-12-14T04:02:53.563Z,4.47
2022-12-14T04:05:37.185Z,4.23
2022-12-14T04:08:35.008Z,4.57
2022-12-14T04:11:23.508Z,3.50
2022-12-14T04:14:21.581Z,4.03
2022-12-14T04:17:10.453Z,7.43
2022-12-14T04:19:50.715Z,5.60
2022-12-14T04:22:22.187Z,3.20
2022-12-14T04:25:34.205Z,3.07
2022-12-14T04:28:30.247Z,3.10
2022-12-14T04:31:01.437Z,2.80
2022-12-14T04:33:47.302Z,3.90
2022-12-14T04:36:44.165Z,2.93
2022-12-14T04:39:18.268Z,2.67
2022-12-14T04:41:49.991Z,1.93
2022-12-14T04:44:28.140Z,2.80
2022-12-14T04:46:56.113Z,6.40
2022-12-14T04:49:44.162Z,3.57
2022-12-14T04:52:59.454Z,2.83
2022-12-14T04:55:38.256Z,1.67
2022-12-14T04:58:28.355Z,2.07
2022-12-14T05:01:19.945Z,3.07
2022-12-14T05:04:00.452Z,3.77
2022-12-14T05:06:49.400Z,2.30
2022-12-14T05:09:51.815Z,3.47
2022-12-14T05:12:33.113Z,2.67
2022-12-14T05:15:00.125Z,2.97
2022-12-14T05:17:27.955Z,2.70
2022-12-14T05:19:54.510Z,3.63
2022-12-14T05:22:21.104Z,4.67
2022-12-14T05:24:47.668Z,4.07
2022-12-14T05:27:14.255Z,2.47
2022-12-14T05:29:40.843Z,2.40
2022-12-14T05:32:11.429Z,1.97
2022-12-14T05:34:38.067Z,1.97
2022-12-14T05:37:04.673Z,3.20
2022-12-14T05:39:32.370Z,2.40
2022-12-14T05:41:59.363Z,5.03
2022-12-14T05:44:25.925Z,1.47
2022-12-14T05:46:52.533Z,3.40
2022-12-14T05:49:19.086Z,3.37
2022-12-14T05:51:45.835Z,2.63
2022-12-14T05:54:12.400Z,2.50
2022-12-14T05:56:38.948Z,3.17
2022-12-14T05:59:06.039Z,3.03
2022-12-14T06:01:32.902Z,2.50
2022-12-14T06:03:59.652Z,2.17
2022-12-14T06:06:26.219Z,1.40
2022-12-14T06:08:52.767Z,1.40
2022-12-14T06:11:21.923Z,1.70
2022-12-14T06:13:49.381Z,1.73
2022-12-14T06:16:22.644Z,1.80
2022-12-14T06:18:56.330Z,1.80
2022-12-14T06:21:26.282Z,2.80
2022-12-14T06:23:54.677Z,1.77
2022-12-14T06:26:21.588Z,2.50
2022-12-14T06:28:48.513Z,2.67
2022-12-14T06:31:19.940Z,2.20
2022-12-14T06:33:46.898Z,2.53
2022-12-14T06:36:27.208Z,3.80
2022-12-14T06:38:54.868Z,1.87
2022-12-14T06:41:22.617Z,3.10
2022-12-14T06:43:49.827Z,2.30
2022-12-14T06:46:19.346Z,2.70
2022-12-14T06:48:50.891Z,8.37
2022-12-14T06:51:17.748Z,11.50
2022-12-14T06:53:44.909Z,3.83
2022-12-14T06:56:16.305Z,3.50
2022-12-14T06:58:43.519Z,4.10
2022-12-14T07:01:14.473Z,36.97
2022-12-14T07:03:42.367Z,13.07
2022-12-14T07:06:09.989Z,4.90
2022-12-14T07:08:38.271Z,4.93
2022-12-14T07:11:06.855Z,5.10
2022-12-14T07:13:34.110Z,5.77
2022-12-14T07:16:01.380Z,4.90
2022-12-14T07:18:28.763Z,7.03
2022-12-14T07:21:00.684Z,6.53
2022-12-14T07:23:29.384Z,3.10
2022-12-14T07:26:23.283Z,4.60
2022-12-14T07:28:50.748Z,2.50
2022-12-14T07:31:23.491Z,4.93
2022-12-14T07:33:55.861Z,7.60
2022-12-14T07:36:23.735Z,4.67
2022-12-14T07:38:51.462Z,5.80
2022-12-14T07:41:23.859Z,3.23
2022-12-14T07:43:51.663Z,5.87
2022-12-14T07:46:20.853Z,9.60
2022-12-14T07:48:49.477Z,3.30
2022-12-14T07:51:18.349Z,4.83
2022-12-14T07:53:45.187Z,1.97
2022-12-14T07:56:18.064Z,6.00
2022-12-14T07:58:45.238Z,7.10
2022-12-14T08:01:18.996Z,3.40
2022-12-14T08:03:48.197Z,2.80
2022-12-14T08:06:16.344Z,3.17
2022-12-14T08:08:42.934Z,3.10
2022-12-14T08:11:10.196Z,2.70
2022-12-14T08:13:38.804Z,5.63
2022-12-14T08:16:08.167Z,2.30
2022-12-14T08:18:35.291Z,5.00
2022-12-14T08:21:03.293Z,6.00
2022-12-14T08:23:30.691Z,2.17
2022-12-14T08:25:59.268Z,2.50
2022-12-14T08:28:27.154Z,7.00
2022-12-14T08:30:54.126Z,4.47
2022-12-14T08:33:21.558Z,5.07
2022-12-14T08:35:48.265Z,1.83
2022-12-14T08:38:15.400Z,3.73
2022-12-14T08:40:42.000Z,4.67
2022-12-14T08:43:09.295Z,4.10
2022-12-14T08:45:36.044Z,2.00
2022-12-14T08:48:03.296Z,1.73
2022-12-14T08:50:29.920Z,2.23
2022-12-14T08:52:56.786Z,3.20
2022-12-14T08:55:28.215Z,2.17
2022-12-14T08:57:56.926Z,3.20
2022-12-14T09:00:23.630Z,15.53
2022-12-14T09:02:51.573Z,14.73
2022-12-14T09:05:18.268Z,16.10
2022-12-14T09:07:45.314Z,13.10
2022-12-14T09:10:12.653Z,14.97
2022-12-14T09:12:39.545Z,15.50
2022-12-14T09:15:07.113Z,29.67
2022-12-14T09:17:34.607Z,7.70
2022-12-14T09:20:01.273Z,8.23
2022-12-14T09:22:27.950Z,9.57
2022-12-14T09:24:54.608Z,9.70
2022-12-14T09:27:22.327Z,7.20
2022-12-14T09:29:50.201Z,7.23
2022-12-14T09:32:17.136Z,9.93
2022-12-14T09:34:43.684Z,6.40
2022-12-14T09:37:10.399Z,11.33
2022-12-14T09:39:36.987Z,7.03
2022-12-14T09:42:17.221Z,13.13
2022-12-14T09:45:00.473Z,9.53
2022-12-14T09:47:37.877Z,6.30
2022-12-14T09:50:11.052Z,6.27
2022-12-14T09:52:48.639Z,9.57
2022-12-14T09:55:58.719Z,9.20
2022-12-14T09:58:28.441Z,5.40
2022-12-14T10:01:11.163Z,4.80
2022-12-14T10:03:41.250Z,4.90
2022-12-14T10:06:29.163Z,4.87
2022-12-14T10:09:06.817Z,5.03
2022-12-14T10:11:45.353Z,7.00
2022-12-14T10:14:26.999Z,3.47
2022-12-14T10:17:15.583Z,5.20
2022-12-14T10:19:51.534Z,5.00
2022-12-14T10:22:22.881Z,4.90
2022-12-14T10:25:03.767Z,8.23
2022-12-14T10:27:53.950Z,16.80
2022-12-14T10:30:21.132Z,8.27
2022-12-14T10:32:52.420Z,8.27
2022-12-14T10:35:32.287Z,5.13
2022-12-14T10:38:27.695Z,6.30
2022-12-14T10:41:02.791Z,5.07
2022-12-14T10:43:43.723Z,8.27
2022-12-14T10:46:16.131Z,5.00
2022-12-14T10:48:48.832Z,4.97
2022-12-14T10:51:37.149Z,7.23
2022-12-14T10:54:09.505Z,6.87
2022-12-14T10:56:40.217Z,8.43
2022-12-14T10:59:21.774Z,5.40
2022-12-14T11:01:52.999Z,6.93
2022-12-14T11:04:35.093Z,7.70
2022-12-14T11:07:10.614Z,8.83
2022-12-14T11:09:38.736Z,5.60
2022-12-14T11:12:15.343Z,4.20
2022-12-14T11:14:55.864Z,4.40
2022-12-14T11:17:37.645Z,4.33
2022-12-14T11:20:06.173Z,16.20
2022-12-14T11:22:58.779Z,17.47
2022-12-14T11:25:30.318Z,12.40
2022-12-14T11:27:59.836Z,14.30
2022-12-14T11:30:29.014Z,21.50
2022-12-14T11:32:55.953Z,10.03
2022-12-14T11:35:22.934Z,10.80
2022-12-14T11:37:50.757Z,11.70
2022-12-14T11:40:27.767Z,8.77
2022-12-14T11:43:03.065Z,8.53
2022-12-14T11:45:32.559Z,13.00
2022-12-14T11:48:14.326Z,11.67
2022-12-14T11:50:42.261Z,5.83
2022-12-14T11:53:15.404Z,4.93
2022-12-14T11:55:50.438Z,9.37
2022-12-14T11:58:39.450Z,6.77
2022-12-14T12:01:12.824Z,10.90
2022-12-14T12:03:45.173Z,8.33
2022-12-14T12:06:15.060Z,4.33
2022-12-14T12:08:44.565Z,6.07
2022-12-14T12:11:21.125Z,6.40
2022-12-14T12:13:52.511Z,5.63
2022-12-14T12:16:23.669Z,4.60
2022-12-14T12:19:12.226Z,6.13
2022-12-14T12:21:44.496Z,3.83
2022-12-14T12:24:29.312Z,4.70
2022-12-14T12:27:11.592Z,6.30
2022-12-14T12:30:13.717Z,6.43
2022-12-14T12:32:49.981Z,4.03
2022-12-14T12:35:46.522Z,5.77
2022-12-14T12:38:22.470Z,8.93
2022-12-14T12:40:54.761Z,4.37
2022-12-14T12:43:49.875Z,5.03
2022-12-14T12:46:22.215Z,3.23
2022-12-14T12:48:59.799Z,6.30
2022-12-14T12:51:30.049Z,4.50
2022-12-14T12:54:11.664Z,4.73
2022-12-14T12:56:55.641Z,4.37
2022-12-14T12:59:37.246Z,4.43
2022-12-14T13:02:35.014Z,8.33
2022-12-14T13:05:44.588Z,5.70
2022-12-14T13:08:06.671Z,8.20
2022-12-14T13:10:55.723Z,5.60
2022-12-14T13:13:31.321Z,4.90
2022-12-14T13:16:15.395Z,4.83
2022-12-14T13:19:01.863Z,4.50
2022-12-14T13:21:42.047Z,6.70
2022-12-14T13:24:16.845Z,3.50
2022-12-14T13:26:59.877Z,3.73
2022-12-14T13:29:54.719Z,3.80
2022-12-14T13:32:47.499Z,4.17
2022-12-14T13:35:13.983Z,4.67
2022-12-14T13:38:10.250Z,3.87
2022-12-14T13:41:01.796Z,8.00
2022-12-14T13:43:35.613Z,3.50
2022-12-14T13:46:24.596Z,4.40
2022-12-14T13:48:55.329Z,2.73
2022-12-14T13:51:38.397Z,4.17
2022-12-14T13:54:16.137Z,3.07
2022-12-14T13:56:43.273Z,3.50
2022-12-14T13:59:21.773Z,4.43
2022-12-14T14:01:54.864Z,3.67
2022-12-14T14:04:25.763Z,4.60
2022-12-14T14:06:54.673Z,5.07
2022-12-14T14:09:30.054Z,3.30
2022-12-14T14:11:59.130Z,2.80
2022-12-14T14:14:34.696Z,3.40
2022-12-14T14:17:25.199Z,9.43
2022-12-14T14:19:56.799Z,4.00
2022-12-14T14:22:29.931Z,6.37
2022-12-14T14:24:57.727Z,2.90
2022-12-14T14:27:37.517Z,3.13
2022-12-14T14:30:24.099Z,3.07
2022-12-14T14:32:53.986Z,13.00
2022-12-14T14:35:30.516Z,3.00
2022-12-14T14:38:02.346Z,5.17
2022-12-14T14:43:36.293Z,2.90
2022-12-14T14:46:05.257Z,4.57
2022-12-14T14:48:49.612Z,6.23
2022-12-14T14:51:25.077Z,3.60
2022-12-14T14:54:36.954Z,4.20
2022-12-14T14:57:03.048Z,3.93
2022-12-14T14:59:43.444Z,5.00
2022-12-14T15:02:32.415Z,6.83
2022-12-14T15:05:17.989Z,6.80
2022-12-14T15:07:47.492Z,4.40
2022-12-14T15:10:36.369Z,4.93
2022-12-14T15:13:08.594Z,8.50
2022-12-14T15:15:37.620Z,8.87
2022-12-14T15:18:19.545Z,11.57
2022-12-14T15:21:03.077Z,11.20
2022-12-14T15:23:49.419Z,14.87
2022-12-14T15:26:27.234Z,11.30
2022-12-14T15:29:00.239Z,11.30
2022-12-14T15:31:33.128Z,14.53
2022-12-14T15:34:01.195Z,14.70
2022-12-14T15:36:31.788Z,14.73
2022-12-14T15:38:58.971Z,10.90
2022-12-14T15:41:29.072Z,11.73
2022-12-14T15:43:59.665Z,10.20
2022-12-14T15:46:29.855Z,9.30
2022-12-14T15:48:58.618Z,9.33
2022-12-14T15:51:37.489Z,9.17
2022-12-14T15:54:06.618Z,10.67
2022-12-14T15:56:36.917Z,9.60
2022-12-14T15:59:23.296Z,8.90
2022-12-14T16:02:04.742Z,8.30
2022-12-14T16:04:33.633Z,7.50
2022-12-14T16:07:14.807Z,7.63
2022-12-14T16:09:50.035Z,9.70
2022-12-14T16:12:23.918Z,7.80
2022-12-14T16:15:02.867Z,8.20
2022-12-14T16:17:35.853Z,7.53
2022-12-14T16:20:25.263Z,7.90
2022-12-14T16:23:01.221Z,6.97
2022-12-14T16:25:29.957Z,6.87
2022-12-14T16:27:56.715Z,6.60
2022-12-14T16:30:33.261Z,7.17
2022-12-14T16:33:08.247Z,6.30
2022-12-14T16:35:37.740Z,6.37
2022-12-14T16:38:11.721Z,5.67
2022-12-14T16:40:54.708Z,34.27
2022-12-14T16:43:30.813Z,35.23
2022-12-14T16:46:03.980Z,27.00
2022-12-14T16:48:32.675Z,18.83
2022-12-14T16:51:37.907Z,15.83
2022-12-14T16:54:31.287Z,16.63
2022-12-14T16:57:04.917Z,15.00
2022-12-14T16:59:41.164Z,16.20
2022-12-14T17:02:31.361Z,18.57
2022-12-14T17:05:02.196Z,17.23
2022-12-14T17:07:30.964Z,13.80
2022-12-14T17:09:57.651Z,15.97
2022-12-14T17:12:25.635Z,12.30
2022-12-14T17:14:52.604Z,11.37
2022-12-14T17:17:28.820Z,15.20
2022-12-14T17:19:55.641Z,15.63
2022-12-14T17:22:26.475Z,11.23
2022-12-14T17:24:53.700Z,15.53
2022-12-14T17:27:26.491Z,12.27
2022-12-14T17:29:54.497Z,12.37
2022-12-14T17:32:22.124Z,11.47
2022-12-14T17:34:49.090Z,10.43
2022-12-14T17:37:22.024Z,10.10
2022-12-14T17:39:51.696Z,11.33
2022-12-14T17:42:20.811Z,9.07
2022-12-14T17:44:58.176Z,13.77
2022-12-14T17:47:25.237Z,10.00
2022-12-14T17:49:51.872Z,9.43
2022-12-14T17:52:23.638Z,10.13
2022-12-14T17:54:50.368Z,9.83
2022-12-14T17:57:22.641Z,9.47
2022-12-14T17:59:49.833Z,7.70
2022-12-14T18:02:26.232Z,9.40
2022-12-14T18:04:52.977Z,10.37
2022-12-14T18:07:19.639Z,10.17
2022-12-14T18:09:47.083Z,7.90
2022-12-14T18:12:23.016Z,9.10
2022-12-14T18:14:50.296Z,7.50
2022-12-14T18:17:17.270Z,8.60
2022-12-14T18:19:43.937Z,6.80
2022-12-14T18:22:11.053Z,7.17
2022-12-14T18:24:37.682Z,11.77
2022-12-14T18:27:04.275Z,8.20
2022-12-14T18:29:30.832Z,9.40
2022-12-14T18:31:57.483Z,7.30
2022-12-14T18:34:24.370Z,9.30
2022-12-14T18:36:51.016Z,6.40
2022-12-14T18:39:18.209Z,7.33
2022-12-14T18:41:44.831Z,10.93
2022-12-14T18:44:11.521Z,8.97
2022-12-14T18:46:39.216Z,8.20
2022-12-14T18:49:05.934Z,7.63
2022-12-14T18:51:32.487Z,11.47
2022-12-14T18:54:00.449Z,9.07
2022-12-14T18:56:29.024Z,9.97
2022-12-14T18:58:56.140Z,10.43
2022-12-14T19:01:24.810Z,8.80
2022-12-14T19:03:51.772Z,6.83
2022-12-14T19:06:43.702Z,8.20
2022-12-14T19:09:07.854Z,7.37
2022-12-14T19:11:38.762Z,7.83
2022-12-14T19:14:05.554Z,6.60
2022-12-14T19:16:32.191Z,7.87
2022-12-14T19:18:59.886Z,6.60
2022-12-14T19:21:27.889Z,6.00
2022-12-14T19:23:55.609Z,6.80
2022-12-14T19:26:22.175Z,6.60
2022-12-14T19:28:48.824Z,7.13
2022-12-14T19:31:15.488Z,6.67
2022-12-14T19:33:42.128Z,6.30
2022-12-14T19:36:09.221Z,9.20
2022-12-14T19:38:36.826Z,8.90
2022-12-14T19:41:09.928Z,5.80
2022-12-14T19:43:36.613Z,9.50
2022-12-14T19:46:11.916Z,6.93
2022-12-14T19:48:38.853Z,6.23
2022-12-14T19:51:07.701Z,8.80
2022-12-14T19:53:35.229Z,6.47
2022-12-14T19:56:02.111Z,8.10
2022-12-14T19:58:29.411Z,7.30
2022-12-14T20:00:56.220Z,7.57
2022-12-14T20:03:22.975Z,6.00
2022-12-14T20:06:00.924Z,6.13
2022-12-14T20:08:29.376Z,6.40
2022-12-14T20:10:56.542Z,8.53
2022-12-14T20:13:24.860Z,7.50
2022-12-14T20:15:53.969Z,8.17
2022-12-14T20:18:21.688Z,4.80
2022-12-14T20:20:49.621Z,5.80
2022-12-14T20:23:21.470Z,7.87
2022-12-14T20:25:48.596Z,8.93
2022-12-14T20:28:15.670Z,6.03
2022-12-14T20:30:46.728Z,6.83
2022-12-14T20:33:14.422Z,7.27
2022-12-14T20:35:41.062Z,5.70
2022-12-14T20:38:07.647Z,8.73
2022-12-14T20:40:38.507Z,6.37
2022-12-14T20:43:06.764Z,6.93
2022-12-14T20:45:41.855Z,6.53
2022-12-14T20:48:08.829Z,7.40
2022-12-14T20:50:37.070Z,6.53
2022-12-14T20:53:03.931Z,7.20
2022-12-14T20:55:30.695Z,7.93
2022-12-14T20:57:57.245Z,9.60
2022-12-14T21:00:24.204Z,6.33
2022-12-14T21:02:51.032Z,7.50
2022-12-14T21:05:17.746Z,6.03
2022-12-14T21:07:44.477Z,7.70
2022-12-14T21:10:11.180Z,7.67
2022-12-14T21:12:37.761Z,8.30
2022-12-14T21:15:04.941Z,5.10
2022-12-14T21:17:33.565Z,4.90
2022-12-14T21:20:00.116Z,9.87
2022-12-14T21:22:28.908Z,7.53
2022-12-14T21:25:04.656Z,6.00
2022-12-14T21:27:34.066Z,6.37
2022-12-14T21:30:01.157Z,6.27
2022-12-14T21:32:28.140Z,7.80
2022-12-14T21:34:54.695Z,6.30
2022-12-14T21:37:22.295Z,41.23
2022-12-14T21:39:54.342Z,15.67
2022-12-14T21:42:21.880Z,9.20
2022-12-14T21:44:50.090Z,7.47
2022-12-14T21:47:22.732Z,10.23
2022-12-14T21:49:49.736Z,9.63
2022-12-14T21:52:19.279Z,7.03
2022-12-14T21:54:45.921Z,7.87
2022-12-14T21:57:36.262Z,9.40
2022-12-14T22:00:05.106Z,6.63
2022-12-14T22:02:31.834Z,7.23
2022-12-14T22:04:58.892Z,9.07
2022-12-14T22:07:29.048Z,69.40
2022-12-14T22:09:55.585Z,50.40
2022-12-14T22:12:22.124Z,42.93
2022-12-14T22:14:49.692Z,37.30
2022-12-14T22:17:16.436Z,37.67
2022-12-14T22:19:43.015Z,34.63
2022-12-14T22:22:16.870Z,35.50
2022-12-14T22:24:44.951Z,34.63
2022-12-14T22:27:12.583Z,32.10
2022-12-14T22:29:39.430Z,33.80
2022-12-14T22:32:06.990Z,30.73
2022-12-14T22:34:33.774Z,36.20
2022-12-14T22:37:00.304Z,29.10
2022-12-14T22:39:26.828Z,29.50
2022-12-14T22:41:53.359Z,26.77
2022-12-14T22:44:19.966Z,27.03
2022-12-14T22:46:46.625Z,27.03
2022-12-14T22:49:17.427Z,24.63
2022-12-14T22:51:44.008Z,27.13
2022-12-14T22:54:18.635Z,26.40
2022-12-14T22:57:00.117Z,27.03
2022-12-14T22:59:36.694Z,24.17
2022-12-14T23:02:04.069Z,23.57
2022-12-14T23:04:31.003Z,23.80
2022-12-14T23:06:57.568Z,27.07
2022-12-14T23:09:42.911Z,28.23
2022-12-14T23:12:28.122Z,20.67
2022-12-14T23:15:13.299Z,18.33
2022-12-14T23:17:58.779Z,20.97
2022-12-14T23:20:44.089Z,21.43
2022-12-14T23:23:29.929Z,21.43
2022-12-14T23:26:20.474Z,21.13
2022-12-14T23:29:05.791Z,22.07
2022-12-14T23:31:51.251Z,21.80
2022-12-14T23:34:36.560Z,19.70
2022-12-14T23:37:21.727Z,20.40
2022-12-14T23:40:06.971Z,18.03
2022-12-14T23:42:52.354Z,20.17
2022-12-14T23:45:38.203Z,17.50
2022-12-14T23:48:23.595Z,17.70
2022-12-14T23:51:08.979Z,21.77
2022-12-14T23:53:54.420Z,17.37
2022-12-14T23:56:39.790Z,21.67
2022-12-14T23:59:31.531Z,18.07
